Cowley, Canada
Current Conditions -  °F | °C
As of 11:00 PM on Monday 20 Oct 2014 (Local Time) from CZPC Reporting Station
Clear Clear  
Wind Chill: 46°   Ceiling: Unl
Heat Index: 46°   Visibility: 9mi
Dew Point: 34°   Wind: 3mph
Humidity: 62%   Direction: 120°ESE
Pressure: 29.69"   Gusts: NA
Location:  49.57°N, 114.07°W
Report Text: CZPC 210500Z AUTO 12003KT 110V210 9SM CLR 08/01 A2969 RMK SLP049 DENSITY ALT 4200FT
Loading
Personal Weather Stations






























Interactive Weather Map
Tropical Storm Tracking
New forecast layout! Learn more

10-Day Weather Forecast

Advertisements
Track Severe Weather on mobile